Time;durP1;ratioP1;P1;durP2;ratioP2;P2;SDS_P1;SDS_P2;PMS_P1;PMS_P2;Temp;Humidity;BMP_temperature;BMP_pressure;BME280_temperature;BME280_humidity;BME280_pressure;Samples;Min_cycle;Max_cycle;Signal;HPM_P1;HPM_P2
2022/10/04 00:00:24;;;;;;;7.85;3.35;;;16.30;99.90;;;;;;1030091;28;20097;-74
2022/10/04 00:01:12;;;;;;;4.60;3.17;;;16.30;99.90;;;;;;1026993;28;20022;-74
2022/10/04 00:01:49;;;;;;;5.85;3.13;;;16.30;99.90;;;;;;1029766;28;20655;-73
2022/10/04 00:02:26;;;;;;;5.70;3.50;;;16.30;99.90;;;;;;1023612;28;20471;-74
2022/10/04 00:03:07;;;;;;;5.32;3.05;;;16.30;99.90;;;;;;1026462;28;20070;-73
2022/10/04 00:03:47;;;;;;;6.07;3.22;;;16.30;99.90;;;;;;1023017;29;20023;-73
2022/10/04 00:04:27;;;;;;;4.30;2.92;;;16.20;99.90;;;;;;1022270;29;20022;-73
2022/10/04 00:05:12;;;;;;;7.10;3.20;;;16.20;99.90;;;;;;1025914;28;20018;-74
2022/10/04 00:05:52;;;;;;;4.95;3.10;;;16.20;99.90;;;;;;1022867;28;20019;-74
2022/10/04 00:06:24;;;;;;;5.85;3.55;;;16.20;99.90;;;;;;1024305;28;20015;-74
2022/10/04 00:07:10;;;;;;;7.63;3.67;;;16.20;99.90;;;;;;1026968;28;20727;-73
2022/10/04 00:07:47;;;;;;;5.65;3.35;;;16.20;99.90;;;;;;1027388;28;20374;-74
2022/10/04 00:08:52;;;;;;;6.03;3.20;;;16.20;99.90;;;;;;1027007;28;20019;-74
2022/10/04 00:09:28;;;;;;;4.72;3.05;;;16.20;99.90;;;;;;1019596;28;20434;-73
2022/10/04 00:10:06;;;;;;;5.80;3.67;;;16.20;99.90;;;;;;1027139;28;20061;-74
2022/10/04 00:10:36;;;;;;;4.13;3.10;;;16.20;99.90;;;;;;1030643;28;20023;-74
2022/10/04 00:11:43;;;;;;;4.67;2.60;;;16.20;99.90;;;;;;1026626;28;20118;-73
2022/10/04 00:12:26;;;;;;;7.47;2.90;;;16.20;99.90;;;;;;1016410;29;20657;-73
2022/10/04 00:13:06;;;;;;;4.05;2.72;;;16.20;99.90;;;;;;1021278;29;20399;-73
2022/10/04 00:13:37;;;;;;;5.63;3.38;;;16.20;99.90;;;;;;1026227;28;20456;-73
2022/10/04 00:14:34;;;;;;;6.22;2.90;;;16.20;99.90;;;;;;1032471;28;20270;-73
2022/10/04 00:15:16;;;;;;;;;;;16.20;99.90;;;;;;1032792;28;20651;-73
2022/10/04 00:15:49;;;;;;;7.53;3.40;;;16.20;99.90;;;;;;1029975;28;19913;-73
2022/10/04 00:16:26;;;;;;;5.28;3.10;;;16.20;99.90;;;;;;1027072;28;20022;-73
2022/10/04 00:16:59;;;;;;;4.97;3.53;;;16.20;99.90;;;;;;1026658;28;20102;-74
2022/10/04 00:17:34;;;;;;;5.30;3.05;;;16.20;99.90;;;;;;1026744;28;20528;-73
2022/10/04 00:18:10;;;;;;;4.93;2.90;;;16.20;99.90;;;;;;1027147;28;20086;-74
2022/10/04 00:18:44;;;;;;;4.55;2.97;;;16.20;99.90;;;;;;1028211;28;20050;-74
2022/10/04 00:19:14;;;;;;;4.32;3.05;;;16.20;99.90;;;;;;1030981;28;20054;-73
2022/10/04 00:19:47;;;;;;;4.70;3.20;;;16.20;99.90;;;;;;1030575;28;20030;-72
2022/10/04 00:20:49;;;;;;;4.80;3.38;;;16.20;99.90;;;;;;1029768;28;20551;-73
2022/10/04 00:21:20;;;;;;;5.00;3.40;;;16.20;99.90;;;;;;1025813;28;20054;-72
2022/10/04 00:21:50;;;;;;;6.67;3.00;;;16.10;99.90;;;;;;1027051;28;20090;-73
2022/10/04 00:22:23;;;;;;;5.13;3.03;;;16.20;99.90;;;;;;1026440;28;20026;-75
2022/10/04 00:23:38;;;;;;;7.65;3.40;;;16.20;99.90;;;;;;1022513;29;20016;-73
2022/10/04 00:24:19;;;;;;;5.68;3.60;;;16.20;99.90;;;;;;1027100;28;20050;-73
2022/10/04 00:25:13;;;;;;;7.32;3.10;;;16.20;99.90;;;;;;1025931;28;20055;-73
2022/10/04 00:25:43;;;;;;;6.15;3.20;;;16.20;99.90;;;;;;1020655;28;20127;-73
2022/10/04 00:26:24;;;;;;;5.93;3.37;;;16.20;99.90;;;;;;1022687;29;20090;-73
2022/10/04 00:27:24;;;;;;;5.78;3.05;;;16.20;99.90;;;;;;1022484;29;20034;-74
2022/10/04 00:28:15;;;;;;;7.47;3.75;;;16.20;99.90;;;;;;1022545;29;20245;-74
2022/10/04 00:28:46;;;;;;;5.88;3.38;;;16.20;99.90;;;;;;1025213;28;20019;-73
2022/10/04 00:29:30;;;;;;;6.18;3.03;;;16.20;99.90;;;;;;1022469;29;20015;-73
2022/10/04 00:30:00;;;;;;;5.18;3.30;;;16.20;99.90;;;;;;1026756;28;20014;-74
2022/10/04 00:30:36;;;;;;;5.40;3.10;;;16.20;99.90;;;;;;1026503;28;20034;-73
2022/10/04 00:31:16;;;;;;;5.18;3.05;;;16.20;99.90;;;;;;1021386;29;20406;-74
2022/10/04 00:32:11;;;;;;;6.13;3.58;;;16.20;99.90;;;;;;1022580;29;20430;-73
2022/10/04 00:32:41;;;;;;;5.90;3.65;;;16.20;99.90;;;;;;1025764;28;20022;-74
2022/10/04 00:33:33;;;;;;;4.00;3.00;;;16.20;99.90;;;;;;1022490;28;20023;-72
2022/10/04 00:34:07;;;;;;;5.28;3.10;;;16.20;99.90;;;;;;1019170;28;20640;-73
2022/10/04 00:34:49;;;;;;;5.00;3.03;;;16.20;99.90;;;;;;1020819;29;20095;-73
2022/10/04 00:35:28;;;;;;;4.95;3.05;;;16.20;99.90;;;;;;1022493;29;20445;-73
2022/10/04 00:35:58;;;;;;;7.05;3.35;;;16.20;99.90;;;;;;1025545;28;20031;-73
2022/10/04 00:36:30;;;;;;;3.63;3.10;;;16.20;99.90;;;;;;1027207;28;20110;-73
2022/10/04 00:37:13;;;;;;;6.55;3.35;;;16.20;99.90;;;;;;1026775;28;20101;-73
2022/10/04 00:38:00;;;;;;;5.47;3.05;;;16.20;99.90;;;;;;1026684;28;20047;-73
2022/10/04 00:38:30;;;;;;;5.38;3.15;;;16.20;99.90;;;;;;1026655;28;20026;-73
2022/10/04 00:39:03;;;;;;;4.87;3.20;;;16.20;99.90;;;;;;1026964;28;20110;-74
2022/10/04 00:39:34;;;;;;;5.22;3.10;;;16.20;99.90;;;;;;1029028;28;20077;-73
2022/10/04 00:40:14;;;;;;;6.90;3.17;;;16.20;99.90;;;;;;1031129;28;20026;-73
2022/10/04 00:40:54;;;;;;;5.43;3.10;;;16.20;99.90;;;;;;1030544;28;20032;-73
2022/10/04 00:41:27;;;;;;;5.00;3.00;;;16.20;99.90;;;;;;1031056;28;20019;-73
2022/10/04 00:42:39;;;;;;;5.90;3.47;;;16.20;99.90;;;;;;1030428;28;20053;-73
2022/10/04 00:43:22;;;;;;;6.20;3.30;;;16.20;99.90;;;;;;1026939;28;20085;-73
2022/10/04 00:43:56;;;;;;;8.10;3.50;;;16.20;99.90;;;;;;1026869;28;20390;-73
2022/10/04 00:44:36;;;;;;;5.55;2.90;;;16.20;99.90;;;;;;1030525;28;20018;-73
2022/10/04 00:45:21;;;;;;;3.78;2.83;;;16.20;99.90;;;;;;1030222;28;20010;-73
2022/10/04 00:46:01;;;;;;;6.03;3.65;;;16.20;99.90;;;;;;1030074;28;20026;-73
2022/10/04 00:46:32;;;;;;;4.75;2.95;;;16.20;99.90;;;;;;1026589;28;20391;-74
2022/10/04 00:47:22;;;;;;;7.22;3.10;;;16.10;99.90;;;;;;1026787;28;20015;-74
2022/10/04 00:48:02;;;;;;;7.50;3.67;;;16.20;99.90;;;;;;1026674;28;20033;-72
2022/10/04 00:48:44;;;;;;;5.57;2.95;;;16.20;99.90;;;;;;1026632;28;20015;-73
2022/10/04 00:49:19;;;;;;;7.20;3.28;;;16.20;99.90;;;;;;1026674;28;20022;-73
2022/10/04 00:49:56;;;;;;;6.35;3.47;;;16.10;99.90;;;;;;1026059;28;20019;-74
2022/10/04 00:50:38;;;;;;;5.18;2.65;;;16.10;99.90;;;;;;1022847;28;20019;-74
2022/10/04 00:51:18;;;;;;;6.95;3.35;;;16.10;99.90;;;;;;1023403;28;20110;-73
2022/10/04 00:52:05;;;;;;;6.28;3.13;;;16.10;99.90;;;;;;1026532;28;20019;-73
2022/10/04 00:52:49;;;;;;;5.57;3.33;;;16.10;99.90;;;;;;1026364;28;20488;-74
2022/10/04 00:53:40;;;;;;;5.82;3.53;;;16.10;99.90;;;;;;1026602;28;20061;-74
2022/10/04 00:54:17;;;;;;;6.85;3.30;;;16.10;99.90;;;;;;1026199;28;20033;-72
2022/10/04 00:54:52;;;;;;;3.72;2.90;;;16.10;99.90;;;;;;1026425;28;20026;-74
2022/10/04 00:55:38;;;;;;;6.35;3.28;;;16.10;99.90;;;;;;1026243;28;20026;-74
2022/10/04 00:56:29;;;;;;;7.53;3.25;;;16.10;99.90;;;;;;1026639;28;20015;-73
2022/10/04 00:57:12;;;;;;;6.10;3.67;;;16.10;99.90;;;;;;1026337;28;20081;-74
2022/10/04 00:57:48;;;;;;;8.40;3.83;;;16.10;99.90;;;;;;1030351;28;20180;-73
2022/10/04 00:58:27;;;;;;;5.85;3.45;;;16.10;99.90;;;;;;1030398;28;20054;-73
2022/10/04 00:58:58;;;;;;;5.13;3.25;;;16.10;99.90;;;;;;1030314;28;20025;-73
2022/10/04 00:59:34;;;;;;;5.50;3.30;;;16.10;99.90;;;;;;1030390;28;20029;-74
2022/10/04 01:00:12;;;;;;;5.68;3.38;;;16.10;99.90;;;;;;1030735;28;20022;-74
2022/10/04 01:00:44;;;;;;;8.66;3.62;;;16.10;99.90;;;;;;1026068;28;20055;-74
2022/10/04 01:01:22;;;;;;;6.70;3.58;;;16.10;99.90;;;;;;1026487;28;20090;-73
2022/10/04 01:02:01;;;;;;;5.47;2.80;;;16.10;99.90;;;;;;1026440;28;20026;-74
2022/10/04 01:02:45;;;;;;;4.70;2.90;;;16.10;99.90;;;;;;1029327;28;20138;-74
2022/10/04 01:03:29;;;;;;;4.72;3.38;;;16.10;99.90;;;;;;1025416;28;20144;-73
2022/10/04 01:04:03;;;;;;;6.38;3.10;;;16.10;99.90;;;;;;1026786;28;20031;-74
2022/10/04 01:04:40;;;;;;;8.90;3.45;;;16.10;99.90;;;;;;1026418;28;20846;-73
2022/10/04 01:05:18;;;;;;;5.07;3.47;;;16.10;99.90;;;;;;1028661;28;20022;-73
2022/10/04 01:05:55;;;;;;;4.72;3.64;;;16.10;99.90;;;;;;1026268;28;20023;-73
2022/10/04 01:06:26;;;;;;;5.65;3.47;;;16.10;99.90;;;;;;1027795;28;20082;-73
2022/10/04 01:07:01;;;;;;;6.03;3.80;;;16.00;99.90;;;;;;1028562;28;20586;-73
2022/10/04 01:07:40;;;;;;;4.82;2.90;;;16.00;99.90;;;;;;1026641;28;20023;-73
2022/10/04 01:08:14;;;;;;;6.24;3.26;;;16.10;99.90;;;;;;1026603;28;20015;-74
2022/10/04 01:08:49;;;;;;;4.00;2.95;;;16.10;99.90;;;;;;1026538;28;20026;-74
2022/10/04 01:09:21;;;;;;;5.53;3.30;;;16.10;99.90;;;;;;1028648;28;20011;-73
2022/10/04 01:09:56;;;;;;;6.65;3.20;;;16.10;99.90;;;;;;1029109;28;20383;-73
2022/10/04 01:10:38;;;;;;;4.93;2.85;;;16.10;99.90;;;;;;1026813;28;20117;-74
2022/10/04 01:11:22;;;;;;;5.90;3.20;;;16.10;99.90;;;;;;1026358;28;20015;-73
2022/10/04 01:12:02;;;;;;;5.32;3.05;;;16.10;99.90;;;;;;1026710;28;20011;-73
2022/10/04 01:12:44;;;;;;;8.02;3.72;;;16.10;99.90;;;;;;1026408;28;20401;-73
2022/10/04 01:13:16;;;;;;;4.32;3.22;;;16.10;99.90;;;;;;1025881;28;20141;-72
2022/10/04 01:13:57;;;;;;;8.18;3.45;;;16.10;99.90;;;;;;1026406;28;20026;-73
2022/10/04 01:14:38;;;;;;;6.07;3.40;;;16.10;99.90;;;;;;1025895;28;20022;-73
2022/10/04 01:15:21;;;;;;;5.97;3.20;;;16.10;99.90;;;;;;1029200;28;20018;-74
2022/10/04 01:16:16;;;;;;;7.53;3.67;;;16.10;99.90;;;;;;1026865;28;20054;-73
2022/10/04 01:16:47;;;;;;;5.75;3.60;;;16.10;99.90;;;;;;1026770;28;20022;-73
2022/10/04 01:17:18;;;;;;;4.73;3.53;;;16.10;99.90;;;;;;1026264;28;20370;-73
2022/10/04 01:18:13;;;;;;;6.82;3.47;;;16.10;99.90;;;;;;1026490;28;20026;-74
2022/10/04 01:18:44;;;;;;;6.72;3.65;;;16.10;99.90;;;;;;1025767;28;20077;-73
2022/10/04 01:19:21;;;;;;;7.93;4.13;;;16.10;99.90;;;;;;1022519;29;20027;-75
2022/10/04 01:19:53;;;;;;;6.22;3.75;;;16.10;99.90;;;;;;1022490;29;20035;-72
2022/10/04 01:20:36;;;;;;;4.72;3.35;;;16.10;99.90;;;;;;1030329;28;20096;-73
2022/10/04 01:21:28;;;;;;;5.50;3.42;;;16.10;99.90;;;;;;1026348;28;20078;-73
2022/10/04 01:22:04;;;;;;;5.63;3.78;;;16.10;99.90;;;;;;1022913;29;20082;-73
2022/10/04 01:22:39;;;;;;;5.35;3.20;;;16.10;99.90;;;;;;1024624;28;20023;-73
2022/10/04 01:23:09;;;;;;;5.03;3.20;;;16.10;99.90;;;;;;1026539;28;20425;-73
2022/10/04 01:23:44;;;;;;;5.83;3.60;;;16.10;99.90;;;;;;1026548;28;20436;-73
2022/10/04 01:24:16;;;;;;;7.95;3.97;;;16.10;99.90;;;;;;1021959;28;20020;-73
2022/10/04 01:24:46;;;;;;;7.10;3.75;;;16.10;99.90;;;;;;1022689;29;20028;-74
2022/10/04 01:25:46;;;;;;;6.10;3.70;;;16.10;99.90;;;;;;1022457;29;20023;-73
2022/10/04 01:26:29;;;;;;;5.07;3.63;;;16.10;99.90;;;;;;1023278;29;20031;-72
2022/10/04 01:27:00;;;;;;;6.38;3.78;;;16.10;99.90;;;;;;1026176;28;20437;-72
2022/10/04 01:27:42;;;;;;;7.47;3.80;;;16.10;99.90;;;;;;1026674;28;20026;-75
2022/10/04 01:28:13;;;;;;;5.50;3.42;;;16.10;99.90;;;;;;1026313;28;20027;-73
2022/10/04 01:28:44;;;;;;;6.53;3.58;;;16.00;99.90;;;;;;1026674;28;20042;-73
2022/10/04 01:29:25;;;;;;;6.67;4.10;;;16.10;99.90;;;;;;1026680;28;20117;-73
2022/10/04 01:29:55;;;;;;;6.30;3.35;;;16.10;99.90;;;;;;1027308;28;20049;-74
2022/10/04 01:30:26;;;;;;;4.23;3.07;;;16.10;99.90;;;;;;1026199;28;20389;-73
2022/10/04 01:30:57;;;;;;;5.90;3.57;;;16.00;99.90;;;;;;1026201;28;20493;-74
2022/10/04 01:31:29;;;;;;;6.70;3.83;;;16.00;99.90;;;;;;1026970;28;20153;-73
2022/10/04 01:32:01;;;;;;;4.20;3.30;;;16.10;99.90;;;;;;1026502;28;20557;-73
2022/10/04 01:32:31;;;;;;;4.75;3.45;;;16.10;99.90;;;;;;1026805;28;20101;-74
2022/10/04 01:33:02;;;;;;;7.70;4.30;;;16.00;99.90;;;;;;1026445;28;20109;-73
2022/10/04 01:33:35;;;;;;;7.03;3.67;;;16.10;99.90;;;;;;1026365;28;20056;-75
2022/10/04 01:34:06;;;;;;;5.20;3.42;;;16.10;99.90;;;;;;1027171;28;20029;-73
2022/10/04 01:34:39;;;;;;;7.28;3.15;;;16.10;99.90;;;;;;1030440;28;20034;-74
2022/10/04 01:35:12;;;;;;;5.95;3.50;;;16.00;99.90;;;;;;1029968;28;20026;-75
2022/10/04 01:35:43;;;;;;;6.55;3.80;;;16.10;99.90;;;;;;1025873;28;20023;-73
2022/10/04 01:36:14;;;;;;;5.70;3.42;;;16.00;99.90;;;;;;1026297;28;20031;-74
2022/10/04 01:36:46;;;;;;;6.50;3.80;;;16.00;99.90;;;;;;1026734;28;20032;-74
2022/10/04 01:37:17;;;;;;;6.72;3.55;;;16.00;99.90;;;;;;1026320;28;20027;-74
2022/10/04 01:37:47;;;;;;;5.93;3.70;;;16.00;99.90;;;;;;1027067;28;20062;-74
2022/10/04 01:38:18;;;;;;;6.90;4.03;;;16.00;99.90;;;;;;1030339;28;20365;-74
2022/10/04 01:38:50;;;;;;;6.37;3.77;;;16.00;99.90;;;;;;1024613;28;20026;-73
2022/10/04 01:39:22;;;;;;;5.30;3.97;;;16.00;99.90;;;;;;1022880;28;20027;-74
2022/10/04 01:39:53;;;;;;;5.38;3.72;;;16.00;99.90;;;;;;1026264;28;20030;-74
2022/10/04 01:40:23;;;;;;;6.47;4.43;;;16.00;99.90;;;;;;1027141;28;20041;-74
2022/10/04 01:40:59;;;;;;;5.83;3.80;;;16.00;99.90;;;;;;1029904;28;20089;-73
2022/10/04 01:41:55;;;;;;;5.22;3.33;;;16.00;99.90;;;;;;1026570;28;20086;-73
2022/10/04 01:42:34;;;;;;;5.20;3.67;;;16.00;99.90;;;;;;1026919;28;20122;-71
2022/10/04 01:43:10;;;;;;;7.63;4.55;;;16.00;99.90;;;;;;1026896;28;20065;-74
2022/10/04 01:43:44;;;;;;;6.22;3.70;;;16.00;99.90;;;;;;1026275;28;20752;-74
2022/10/04 01:44:24;;;;;;;5.63;3.80;;;16.00;99.90;;;;;;1022862;29;20027;-72
2022/10/04 01:45:03;;;;;;;6.50;3.92;;;16.00;99.90;;;;;;1024836;28;20099;-73
2022/10/04 01:45:49;;;;;;;6.95;4.18;;;16.00;99.90;;;;;;1026946;28;20628;-72
2022/10/04 01:46:24;;;;;;;6.40;3.88;;;16.00;99.90;;;;;;1030234;28;20369;-72
2022/10/04 01:47:00;;;;;;;6.57;3.90;;;16.00;99.90;;;;;;1029950;28;20116;-74
2022/10/04 01:47:39;;;;;;;6.78;3.95;;;16.00;99.90;;;;;;1026383;28;20030;-73
2022/10/04 01:48:15;;;;;;;6.03;3.83;;;15.90;99.90;;;;;;1026836;28;20023;-73
2022/10/04 01:48:46;;;;;;;5.45;3.92;;;16.00;99.90;;;;;;1027780;28;20030;-73
2022/10/04 01:49:22;;;;;;;6.05;3.72;;;15.90;99.90;;;;;;1030312;28;20027;-73
2022/10/04 01:49:56;;;;;;;7.97;4.13;;;15.90;99.90;;;;;;1029424;28;20034;-73
2022/10/04 01:50:40;;;;;;;6.57;4.65;;;15.90;99.90;;;;;;1027751;28;20022;-72
2022/10/04 01:51:23;;;;;;;6.38;3.78;;;15.90;99.90;;;;;;1026355;28;20022;-73
2022/10/04 01:52:01;;;;;;;5.05;3.63;;;15.90;99.90;;;;;;1026413;28;20018;-72
2022/10/04 01:52:45;;;;;;;6.85;4.45;;;15.90;99.90;;;;;;1026499;28;20023;-75
2022/10/04 01:53:23;;;;;;;5.65;4.13;;;15.90;99.90;;;;;;1026888;28;20026;-72
2022/10/04 01:54:00;;;;;;;8.15;4.47;;;15.90;99.90;;;;;;1026194;28;20030;-73
2022/10/04 01:54:40;;;;;;;7.38;4.97;;;15.90;99.90;;;;;;1026066;28;20111;-72
2022/10/04 01:55:17;;;;;;;5.25;3.70;;;15.90;99.90;;;;;;1026444;28;20172;-73
2022/10/04 01:55:51;;;;;;;8.40;4.47;;;15.90;99.90;;;;;;1029561;28;20030;-72
2022/10/04 01:56:26;;;;;;;6.45;4.15;;;15.90;99.90;;;;;;1028650;28;20046;-73
2022/10/04 01:57:19;;;;;;;5.50;4.07;;;16.00;99.90;;;;;;1026436;28;20019;-74
2022/10/04 01:58:06;;;;;;;8.73;4.78;;;16.00;99.90;;;;;;1030278;28;20121;-75
2022/10/04 01:58:44;;;;;;;9.43;5.22;;;16.00;99.90;;;;;;1028728;28;20397;-73
2022/10/04 01:59:21;;;;;;;9.80;4.80;;;16.00;99.90;;;;;;1026498;28;20011;-74
2022/10/04 02:00:01;;;;;;;5.93;4.13;;;16.00;99.90;;;;;;1026744;28;20077;-75
2022/10/04 02:00:32;;;;;;;6.65;4.28;;;16.00;99.90;;;;;;1029190;28;20085;-74
2022/10/04 02:01:14;;;;;;;5.50;4.10;;;16.00;99.90;;;;;;1025839;28;20023;-72
2022/10/04 02:02:06;;;;;;;6.35;4.50;;;16.00;99.90;;;;;;1022503;29;20157;-73
2022/10/04 02:03:09;;;;;;;7.93;5.00;;;16.00;99.90;;;;;;1019030;29;20522;-73
2022/10/04 02:03:47;;;;;;;8.20;5.05;;;16.00;99.90;;;;;;1011259;29;20044;-73
2022/10/04 02:04:19;;;;;;;7.00;4.72;;;;;;;;;;1019543;28;20031;-72
2022/10/04 02:04:54;;;;;;;6.97;4.82;;;16.00;99.90;;;;;;1026588;28;20023;-73
2022/10/04 02:05:46;;;;;;;8.07;4.82;;;16.00;99.90;;;;;;1030659;28;20030;-73
2022/10/04 02:06:19;;;;;;;7.60;4.80;;;16.00;99.90;;;;;;1030364;28;20173;-75
2022/10/04 02:06:53;;;;;;;7.22;5.03;;;16.00;99.90;;;;;;1026659;28;20027;-75
2022/10/04 02:07:27;;;;;;;8.30;5.22;;;16.00;99.90;;;;;;1026335;28;20045;-74
2022/10/04 02:08:06;;;;;;;6.75;4.80;;;16.00;99.90;;;;;;1026649;28;20033;-75
2022/10/04 02:08:43;;;;;;;7.25;4.85;;;16.00;99.90;;;;;;1028451;28;20117;-75
2022/10/04 02:09:18;;;;;;;7.90;5.25;;;16.00;99.90;;;;;;1026855;28;20026;-75
2022/10/04 02:09:55;;;;;;;7.75;5.57;;;16.00;99.90;;;;;;1026311;28;20122;-74
2022/10/04 02:10:26;;;;;;;7.22;5.15;;;16.00;99.90;;;;;;1026762;28;20042;-75
2022/10/04 02:10:59;;;;;;;8.50;4.83;;;16.00;99.90;;;;;;1028075;28;20030;-74
2022/10/04 02:11:30;;;;;;;8.07;5.47;;;15.90;99.90;;;;;;1029226;28;20273;-74
2022/10/04 02:12:01;;;;;;;7.60;5.53;;;16.00;99.90;;;;;;1027196;28;20106;-75
2022/10/04 02:12:33;;;;;;;7.63;5.38;;;16.00;99.90;;;;;;1026854;28;20050;-75
2022/10/04 02:13:13;;;;;;;10.57;5.45;;;15.90;99.90;;;;;;1026831;28;20019;-75
2022/10/04 02:13:45;;;;;;;6.15;4.93;;;16.00;99.90;;;;;;1030131;28;20583;-75
2022/10/04 02:14:20;;;;;;;7.75;5.57;;;15.90;99.90;;;;;;1030862;28;20097;-74
2022/10/04 02:14:52;;;;;;;10.40;6.28;;;15.90;99.90;;;;;;1030238;28;20073;-75
2022/10/04 02:15:25;;;;;;;6.15;4.90;;;15.90;99.90;;;;;;1031551;28;20018;-75
2022/10/04 02:15:57;;;;;;;7.38;4.90;;;16.00;99.90;;;;;;1026949;28;20018;-74
2022/10/04 02:16:29;;;;;;;7.45;4.85;;;15.90;99.90;;;;;;1025702;28;20023;-74
2022/10/04 02:17:09;;;;;;;8.65;5.38;;;15.90;99.90;;;;;;1022777;29;20058;-74
2022/10/04 02:17:42;;;;;;;6.97;5.20;;;15.90;99.90;;;;;;1022354;28;20016;-75
2022/10/04 02:18:16;;;;;;;7.70;5.25;;;15.90;99.90;;;;;;1026575;28;20015;-75
2022/10/04 02:18:48;;;;;;;10.77;6.30;;;15.90;99.90;;;;;;1026472;28;20027;-75
2022/10/04 02:19:23;;;;;;;6.07;4.80;;;15.90;99.90;;;;;;1029667;28;20401;-74
2022/10/04 02:19:54;;;;;;;7.82;5.47;;;15.90;99.90;;;;;;1025404;28;20118;-74
2022/10/04 02:20:26;;;;;;;8.85;5.38;;;15.90;99.90;;;;;;1023326;28;20027;-72
2022/10/04 02:20:58;;;;;;;9.25;5.03;;;15.90;99.90;;;;;;1029750;28;20034;-73
2022/10/04 02:21:29;;;;;;;7.30;4.93;;;15.90;99.90;;;;;;1030509;28;20057;-74
2022/10/04 02:22:03;;;;;;;7.60;4.93;;;15.90;99.90;;;;;;1030233;28;20029;-74
2022/10/04 02:22:34;;;;;;;7.70;5.68;;;15.90;99.90;;;;;;1030697;28;20677;-74
2022/10/04 02:23:06;;;;;;;6.65;4.43;;;15.90;99.90;;;;;;1030332;28;20426;-74
2022/10/04 02:23:38;;;;;;;8.60;4.72;;;15.90;99.90;;;;;;1030371;28;20015;-75
2022/10/04 02:24:09;;;;;;;8.30;5.13;;;15.90;99.90;;;;;;1026250;28;20081;-73
2022/10/04 02:24:46;;;;;;;9.38;5.15;;;15.80;99.90;;;;;;1026232;28;20022;-72
2022/10/04 02:25:19;;;;;;;9.65;5.60;;;15.90;99.90;;;;;;1026048;28;20026;-72
2022/10/04 02:25:50;;;;;;;8.65;5.00;;;15.80;99.90;;;;;;1027559;28;20110;-73
2022/10/04 02:26:21;;;;;;;7.63;4.70;;;15.80;99.90;;;;;;1029660;28;20065;-75
2022/10/04 02:26:52;;;;;;;8.13;5.40;;;15.80;99.90;;;;;;1026554;28;20077;-74
2022/10/04 02:27:30;;;;;;;9.63;5.07;;;15.80;99.90;;;;;;1027116;28;20022;-74
2022/10/04 02:28:02;;;;;;;7.45;5.32;;;15.80;99.90;;;;;;1022316;29;20285;-73
2022/10/04 02:28:33;;;;;;;8.45;5.40;;;15.80;99.90;;;;;;1018189;29;20015;-73
2022/10/04 02:29:04;;;;;;;9.20;4.88;;;15.80;99.90;;;;;;1018648;29;20024;-73
2022/10/04 02:29:35;;;;;;;8.57;5.33;;;15.80;99.90;;;;;;1022598;28;20012;-74
2022/10/04 02:30:08;;;;;;;7.07;4.90;;;15.80;99.90;;;;;;1027132;28;20019;-74
2022/10/04 02:30:43;;;;;;;8.63;5.18;;;15.80;99.90;;;;;;1029449;28;20042;-74
2022/10/04 02:32:59;;;;;;;9.07;5.25;;;15.80;99.90;;;;;;1026973;28;20098;-74
2022/10/04 02:33:29;;;;;;;7.22;5.55;;;15.80;99.90;;;;;;1026778;28;20011;-73
2022/10/04 02:34:00;;;;;;;8.97;5.50;;;15.80;99.90;;;;;;1027059;28;20015;-73
2022/10/04 02:34:31;;;;;;;6.53;4.67;;;15.80;99.90;;;;;;1026100;28;20015;-74
2022/10/04 02:35:02;;;;;;;6.57;5.23;;;15.80;99.90;;;;;;1023774;28;20018;-73
2022/10/04 02:35:45;;;;;;;8.63;5.57;;;15.80;99.90;;;;;;1026945;28;20066;-73
2022/10/04 02:36:17;;;;;;;7.78;5.15;;;15.80;99.90;;;;;;1028875;28;20498;-73
2022/10/04 02:36:50;;;;;;;8.30;5.65;;;15.80;99.90;;;;;;1031476;28;20029;-74
2022/10/04 02:37:24;;;;;;;8.07;5.40;;;15.70;99.90;;;;;;1028849;28;20021;-74
2022/10/04 02:38:02;;;;;;;8.90;5.20;;;15.70;99.90;;;;;;1027890;28;20088;-74
2022/10/04 02:38:36;;;;;;;6.80;5.35;;;15.70;99.90;;;;;;1027433;28;20574;-73
2022/10/04 02:39:15;;;;;;;7.72;4.43;;;15.70;99.90;;;;;;1027729;28;20316;-75
2022/10/04 02:40:02;;;;;;;7.10;5.30;;;15.70;99.90;;;;;;1027383;28;20026;-73
2022/10/04 02:40:56;;;;;;;5.82;4.65;;;15.70;99.90;;;;;;1031322;28;20021;-73
2022/10/04 02:41:47;;;;;;;8.93;5.32;;;15.70;99.90;;;;;;1031041;28;20053;-73
2022/10/04 02:42:24;;;;;;;11.80;5.53;;;15.80;99.90;;;;;;1031199;28;20178;-72
2022/10/04 02:43:03;;;;;;;7.88;5.53;;;15.80;99.90;;;;;;1030821;28;20097;-74
2022/10/04 02:43:49;;;;;;;11.35;6.20;;;15.80;99.90;;;;;;1026971;28;20077;-75
2022/10/04 02:44:28;;;;;;;6.88;5.00;;;15.80;99.90;;;;;;1027345;28;20026;-75
2022/10/04 02:45:05;;;;;;;7.53;4.88;;;15.80;99.90;;;;;;1022830;29;20176;-73
2022/10/04 02:45:51;;;;;;;8.57;5.00;;;15.80;99.90;;;;;;1022969;29;20083;-73
2022/10/04 02:46:33;;;;;;;6.85;4.47;;;15.80;99.90;;;;;;1023142;28;20130;-73
2022/10/04 02:47:14;;;;;;;9.15;5.13;;;15.80;99.90;;;;;;1027406;28;20021;-73
2022/10/04 02:47:53;;;;;;;7.78;4.90;;;15.80;99.90;;;;;;1026881;28;20019;-73
2022/10/04 02:48:47;;;;;;;7.00;4.78;;;15.80;99.90;;;;;;1023554;29;20098;-72
2022/10/04 02:49:40;;;;;;;9.25;4.38;;;15.80;99.90;;;;;;1023212;28;20034;-74
2022/10/04 02:50:29;;;;;;;7.40;5.18;;;15.80;99.90;;;;;;1024856;28;20387;-73
2022/10/04 02:51:13;;;;;;;5.90;4.35;;;15.80;99.90;;;;;;1023296;29;20029;-74
2022/10/04 02:51:51;;;;;;;6.82;4.40;;;15.80;99.90;;;;;;1027010;28;20663;-73
2022/10/04 02:52:26;;;;;;;6.30;4.45;;;15.80;99.90;;;;;;1027490;28;20113;-73
2022/10/04 02:53:10;;;;;;;5.65;4.38;;;15.80;99.90;;;;;;1023163;28;20078;-74
2022/10/04 02:54:02;;;;;;;9.25;5.03;;;15.80;99.90;;;;;;1027558;28;20029;-73
2022/10/04 02:54:36;;;;;;;5.93;4.32;;;15.80;99.90;;;;;;1027637;28;20039;-73
2022/10/04 02:55:21;;;;;;;7.30;4.28;;;15.80;99.90;;;;;;1028236;28;20074;-74
2022/10/04 02:55:54;;;;;;;8.43;4.28;;;15.70;99.90;;;;;;1030784;28;20084;-72
2022/10/04 02:56:25;;;;;;;7.07;4.18;;;15.80;99.90;;;;;;1027497;28;20035;-72
2022/10/04 02:56:57;;;;;;;5.93;4.45;;;15.80;99.90;;;;;;1022906;29;20054;-73
2022/10/04 02:57:30;;;;;;;7.88;5.05;;;15.80;99.90;;;;;;1019449;29;20031;-73
2022/10/04 02:58:01;;;;;;;8.30;4.82;;;15.80;99.90;;;;;;1019772;29;20118;-73
2022/10/04 02:58:36;;;;;;;7.13;4.17;;;15.70;99.90;;;;;;1026061;28;20582;-73
2022/10/04 02:59:10;;;;;;;6.20;4.40;;;15.70;99.90;;;;;;1028733;28;20069;-73
2022/10/04 02:59:41;;;;;;;8.73;4.63;;;15.70;99.90;;;;;;1031013;28;20385;-73
2022/10/04 03:00:12;;;;;;;8.00;4.13;;;15.70;99.90;;;;;;1031285;28;20509;-74
2022/10/04 03:00:55;;;;;;;5.87;3.87;;;15.70;99.90;;;;;;1030167;28;20057;-73
2022/10/04 03:01:47;;;;;;;6.88;4.47;;;15.70;99.90;;;;;;1027994;28;20385;-73
2022/10/04 03:02:26;;;;;;;5.53;4.20;;;15.70;99.90;;;;;;1027017;28;20085;-73
2022/10/04 03:03:31;;;;;;;5.40;3.90;;;15.70;99.90;;;;;;1030930;28;20106;-74
2022/10/04 03:04:02;;;;;;;8.52;5.00;;;15.70;99.90;;;;;;1027505;28;20066;-72
2022/10/04 03:04:38;;;;;;;7.97;4.18;;;15.70;99.90;;;;;;1026286;28;20022;-72
2022/10/04 03:05:12;;;;;;;6.45;4.22;;;15.70;99.90;;;;;;1028601;28;20105;-73
2022/10/04 03:05:47;;;;;;;6.50;4.57;;;15.70;99.90;;;;;;1031130;28;20015;-73
2022/10/04 03:06:19;;;;;;;4.72;4.10;;;15.70;99.90;;;;;;1026996;28;20735;-72
2022/10/04 03:06:52;;;;;;;5.55;3.97;;;15.70;99.90;;;;;;1027394;28;20413;-73
2022/10/04 03:07:23;;;;;;;6.32;4.57;;;15.60;99.90;;;;;;1027027;28;20003;-72
2022/10/04 03:07:54;;;;;;;7.13;4.03;;;15.60;99.90;;;;;;1027944;28;20528;-76
2022/10/04 03:08:27;;;;;;;5.55;4.07;;;15.70;99.90;;;;;;1030589;28;20033;-72
2022/10/04 03:09:02;;;;;;;6.57;4.20;;;15.60;99.90;;;;;;1023277;28;20070;-74
2022/10/04 03:09:35;;;;;;;5.82;3.50;;;15.60;99.90;;;;;;1027575;28;20026;-75
2022/10/04 03:10:11;;;;;;;7.05;4.10;;;15.60;99.90;;;;;;1024283;28;20135;-75
2022/10/04 03:10:42;;;;;;;7.00;4.07;;;15.60;99.90;;;;;;1029271;28;20046;-74
2022/10/04 03:11:15;;;;;;;5.93;3.97;;;15.60;99.90;;;;;;1026758;28;20066;-73
2022/10/04 03:11:48;;;;;;;7.20;4.35;;;15.60;99.90;;;;;;1027228;28;20583;-73
2022/10/04 03:12:21;;;;;;;7.35;4.32;;;15.60;99.90;;;;;;1027162;28;20384;-73
2022/10/04 03:12:52;;;;;;;7.65;4.53;;;15.60;99.90;;;;;;1026874;28;20030;-73
2022/10/04 03:13:22;;;;;;;6.13;4.32;;;15.60;99.90;;;;;;1027345;28;20042;-73
2022/10/04 03:13:59;;;;;;;9.27;4.80;;;15.60;99.90;;;;;;1027879;28;20109;-73
2022/10/04 03:14:31;;;;;;;4.85;3.92;;;15.60;99.90;;;;;;1024040;28;20011;-73
2022/10/04 03:15:01;;;;;;;6.35;4.22;;;15.60;99.90;;;;;;1023434;28;20012;-73
2022/10/04 03:15:32;;;;;;;5.57;4.17;;;15.60;99.90;;;;;;1026374;28;20019;-73
2022/10/04 03:16:04;;;;;;;5.37;4.27;;;15.60;99.90;;;;;;1027513;28;20086;-73
2022/10/04 03:16:38;;;;;;;6.38;4.13;;;15.60;99.90;;;;;;1026860;28;20030;-73
2022/10/04 03:17:08;;;;;;;5.28;3.80;;;15.60;99.90;;;;;;1027369;28;20716;-73
2022/10/04 03:17:41;;;;;;;5.43;4.07;;;15.50;99.90;;;;;;1026910;28;20816;-73
2022/10/04 03:18:14;;;;;;;6.10;3.83;;;15.50;99.90;;;;;;1026894;28;20109;-73